createdAt,value
2023-03-30T00:01:03.774Z,46.60
2023-03-30T00:03:31.255Z,44.70
2023-03-30T00:06:05.317Z,44.30
2023-03-30T00:08:33.514Z,43.40
2023-03-30T00:11:01.986Z,43.40
2023-03-30T00:13:30.343Z,43.40
2023-03-30T00:15:57.331Z,43.40
2023-03-30T00:18:25.028Z,43.40
2023-03-30T00:20:52.819Z,42.70
2023-03-30T00:23:20.516Z,40.80
2023-03-30T00:25:47.510Z,41.10
2023-03-30T00:28:14.531Z,39.90
2023-03-30T00:30:41.781Z,39.80
2023-03-30T00:33:09.269Z,39.50
2023-03-30T00:35:37.031Z,37.80
2023-03-30T00:38:04.152Z,37.20
2023-03-30T00:40:33.904Z,37.00
2023-03-30T00:43:02.837Z,36.80
2023-03-30T00:45:37.046Z,36.30
2023-03-30T00:48:18.352Z,36.60
2023-03-30T00:50:48.809Z,36.50
2023-03-30T00:53:24.195Z,37.10
2023-03-30T00:55:53.156Z,35.70
2023-03-30T00:58:22.618Z,36.10
2023-03-30T01:00:50.691Z,35.40
2023-03-30T01:03:25.265Z,36.10
2023-03-30T01:05:53.715Z,36.30
2023-03-30T01:08:24.014Z,37.20
2023-03-30T01:10:55.944Z,37.20
2023-03-30T01:13:23.032Z,37.20
2023-03-30T01:16:19.060Z,37.40
2023-03-30T01:19:16.173Z,37.00
2023-03-30T01:22:13.022Z,36.80
2023-03-30T01:24:55.035Z,37.20
2023-03-30T01:27:46.112Z,37.70
2023-03-30T01:30:31.831Z,38.30
2023-03-30T01:33:21.203Z,38.40
2023-03-30T01:36:05.059Z,38.60
2023-03-30T01:38:51.698Z,39.30
2023-03-30T01:41:36.921Z,39.70
2023-03-30T01:44:48.847Z,40.40
2023-03-30T01:47:39.616Z,41.80
2023-03-30T01:50:20.437Z,43.20
2023-03-30T01:53:31.317Z,44.20
2023-03-30T01:56:12.240Z,44.00
2023-03-30T01:58:44.990Z,44.30
2023-03-30T02:01:14.558Z,45.70
2023-03-30T02:03:46.597Z,46.40
2023-03-30T02:06:21.040Z,47.10
2023-03-30T02:08:50.746Z,48.30
2023-03-30T02:11:17.899Z,48.40
2023-03-30T02:13:47.363Z,48.40
2023-03-30T02:16:28.975Z,49.00
2023-03-30T02:18:57.782Z,49.50
2023-03-30T02:21:25.839Z,50.60
2023-03-30T02:23:54.815Z,50.90
2023-03-30T02:26:22.979Z,52.00
2023-03-30T02:28:51.704Z,51.20
2023-03-30T02:31:18.955Z,51.70
2023-03-30T02:34:02.627Z,51.70
2023-03-30T02:36:48.157Z,52.90
2023-03-30T02:39:31.542Z,51.50
2023-03-30T02:42:21.755Z,51.40
2023-03-30T02:45:00.400Z,51.50
2023-03-30T02:48:04.728Z,51.70
2023-03-30T02:51:03.880Z,57.30
2023-03-30T02:54:15.940Z,63.50
2023-03-30T02:57:16.432Z,67.10
2023-03-30T02:59:49.653Z,70.00
2023-03-30T03:02:25.105Z,76.30
2023-03-30T03:05:04.231Z,79.80
2023-03-30T03:07:53.738Z,82.90
2023-03-30T03:10:21.523Z,84.50
2023-03-30T03:12:48.669Z,86.30
2023-03-30T03:15:16.432Z,86.60
2023-03-30T03:18:00.987Z,87.00
2023-03-30T03:20:30.663Z,84.30
2023-03-30T03:22:58.938Z,82.40
2023-03-30T03:25:26.017Z,80.90
2023-03-30T03:27:58.421Z,75.80
2023-03-30T03:30:35.599Z,73.80
2023-03-30T03:33:09.330Z,72.60
2023-03-30T03:35:39.443Z,70.70
2023-03-30T03:38:09.039Z,69.70
2023-03-30T03:40:36.465Z,68.80
2023-03-30T03:43:05.974Z,67.20
2023-03-30T03:45:35.895Z,67.00
2023-03-30T03:48:02.969Z,63.70
2023-03-30T03:50:59.235Z,61.60
2023-03-30T03:53:29.368Z,62.00
2023-03-30T03:56:02.146Z,63.30
2023-03-30T03:58:29.360Z,64.40
2023-03-30T04:01:00.850Z,63.80
2023-03-30T04:03:28.607Z,67.50
2023-03-30T04:06:00.311Z,70.60
2023-03-30T04:08:28.631Z,72.70
2023-03-30T04:11:08.714Z,73.40
2023-03-30T04:13:55.952Z,74.80
2023-03-30T04:16:52.360Z,77.40
2023-03-30T04:19:36.159Z,83.20
2023-03-30T04:22:24.376Z,88.10
2023-03-30T04:25:29.317Z,90.80
2023-03-30T04:28:22.080Z,92.20
2023-03-30T04:31:10.719Z,95.00
2023-03-30T04:34:02.779Z,95.00
2023-03-30T04:36:38.885Z,95.30
2023-03-30T04:39:20.936Z,95.80
2023-03-30T04:42:15.651Z,97.10
2023-03-30T04:44:59.650Z,97.70
2023-03-30T04:47:46.740Z,98.90
2023-03-30T04:50:43.879Z,99.10
2023-03-30T04:53:27.656Z,99.90
2023-03-30T04:56:13.583Z,99.90
2023-03-30T04:58:49.125Z,99.90
2023-03-30T05:01:35.970Z,99.90
2023-03-30T05:04:11.772Z,99.90
2023-03-30T05:06:57.335Z,99.90
2023-03-30T05:09:42.734Z,99.90
2023-03-30T05:12:09.682Z,99.90
2023-03-30T05:14:55.366Z,99.90
2023-03-30T05:17:40.033Z,99.90
2023-03-30T05:20:26.217Z,99.90
2023-03-30T05:23:19.524Z,99.90
2023-03-30T05:26:07.222Z,99.90
2023-03-30T05:28:53.892Z,99.90
2023-03-30T05:31:46.696Z,99.90
2023-03-30T05:34:32.081Z,99.90
2023-03-30T05:37:19.032Z,99.90
2023-03-30T05:40:01.523Z,99.90
2023-03-30T05:42:43.332Z,99.90
2023-03-30T05:45:30.389Z,99.90
2023-03-30T05:47:57.487Z,99.90
2023-03-30T05:50:48.447Z,99.90
2023-03-30T05:53:24.420Z,99.90
2023-03-30T05:56:12.000Z,99.60
2023-03-30T05:58:59.253Z,99.60
2023-03-30T06:01:49.824Z,98.10
2023-03-30T06:04:17.842Z,97.30
2023-03-30T06:06:44.986Z,97.20
2023-03-30T06:09:12.430Z,96.40
2023-03-30T06:11:39.450Z,96.30
2023-03-30T06:14:17.485Z,96.50
2023-03-30T06:16:57.337Z,97.80
2023-03-30T06:19:24.609Z,96.80
2023-03-30T06:21:54.051Z,95.50
2023-03-30T06:24:39.205Z,95.10
2023-03-30T06:27:07.798Z,94.40
2023-03-30T06:29:34.810Z,92.10
2023-03-30T06:32:03.761Z,89.50
2023-03-30T06:34:54.489Z,87.20
2023-03-30T06:37:24.700Z,86.00
2023-03-30T06:39:52.725Z,84.80
2023-03-30T06:42:20.267Z,82.60
2023-03-30T06:45:08.401Z,82.70
2023-03-30T06:47:36.394Z,82.80
2023-03-30T06:50:04.614Z,80.80
2023-03-30T06:52:50.226Z,80.70
2023-03-30T06:55:17.355Z,78.50
2023-03-30T06:57:46.857Z,77.00
2023-03-30T07:00:15.439Z,76.20
2023-03-30T07:02:43.362Z,75.80
2023-03-30T07:05:25.046Z,75.80
2023-03-30T07:08:12.330Z,72.80
2023-03-30T07:10:48.309Z,73.00
2023-03-30T07:13:16.976Z,72.60
2023-03-30T07:15:47.082Z,71.80
2023-03-30T07:18:14.885Z,71.00
2023-03-30T07:20:44.980Z,69.20
2023-03-30T07:23:16.639Z,68.30
2023-03-30T07:25:45.933Z,68.90
2023-03-30T07:28:16.746Z,66.90
2023-03-30T07:30:46.915Z,66.80
2023-03-30T07:33:16.288Z,66.50
2023-03-30T07:35:46.996Z,65.50
2023-03-30T07:38:19.282Z,64.70
2023-03-30T07:40:51.685Z,65.40
2023-03-30T07:43:20.543Z,64.60
2023-03-30T07:45:47.974Z,65.10
2023-03-30T07:48:22.119Z,65.80
2023-03-30T07:50:49.286Z,65.30
2023-03-30T07:53:16.548Z,63.00
2023-03-30T07:55:46.696Z,61.80
2023-03-30T07:58:24.276Z,62.70
2023-03-30T08:00:51.820Z,59.80
2023-03-30T08:03:39.256Z,60.70
2023-03-30T08:06:07.399Z,61.40
2023-03-30T08:08:39.060Z,61.30
2023-03-30T08:11:06.929Z,59.40
2023-03-30T08:13:34.258Z,60.80
2023-03-30T08:16:01.337Z,61.20
2023-03-30T08:18:29.206Z,59.90
2023-03-30T08:20:56.683Z,58.90
2023-03-30T08:23:23.713Z,59.40
2023-03-30T08:25:52.798Z,56.40
2023-03-30T08:28:21.428Z,55.20
2023-03-30T08:30:48.811Z,54.90
2023-03-30T08:33:16.090Z,51.80
2023-03-30T08:35:48.086Z,51.90
2023-03-30T08:38:17.205Z,50.80
2023-03-30T08:40:48.273Z,49.50
2023-03-30T08:43:24.388Z,49.80
2023-03-30T08:45:52.171Z,50.10
2023-03-30T08:48:22.492Z,50.40
2023-03-30T08:51:02.951Z,51.80
2023-03-30T08:53:33.503Z,53.40
2023-03-30T08:56:15.145Z,53.90
2023-03-30T08:59:00.602Z,51.90
2023-03-30T09:01:36.352Z,50.60
2023-03-30T09:04:28.162Z,46.20
2023-03-30T09:07:10.533Z,47.70
2023-03-30T09:09:43.886Z,50.50
2023-03-30T09:12:34.225Z,50.20
2023-03-30T09:15:03.793Z,50.30
2023-03-30T09:17:56.229Z,47.30
2023-03-30T09:20:26.294Z,47.60
2023-03-30T09:22:55.900Z,46.20
2023-03-30T09:25:33.952Z,45.60
2023-03-30T09:28:12.927Z,44.40
2023-03-30T09:30:42.848Z,44.30
2023-03-30T09:33:37.883Z,43.30
2023-03-30T09:36:27.733Z,40.80
2023-03-30T09:38:54.875Z,39.40
2023-03-30T09:41:33.502Z,40.10
2023-03-30T09:44:02.581Z,39.40
2023-03-30T09:46:29.829Z,39.80
2023-03-30T09:49:14.770Z,39.50
2023-03-30T09:52:07.805Z,41.30
2023-03-30T09:54:40.913Z,39.70
2023-03-30T09:57:24.096Z,38.80
2023-03-30T09:59:52.835Z,39.10
2023-03-30T10:02:21.531Z,39.30
2023-03-30T10:04:56.835Z,40.20
2023-03-30T10:07:37.206Z,40.20
2023-03-30T10:10:38.474Z,37.90
2023-03-30T10:13:18.128Z,37.20
2023-03-30T10:15:51.530Z,37.40
2023-03-30T10:18:18.785Z,38.40
2023-03-30T10:20:55.202Z,37.70
2023-03-30T10:23:30.559Z,38.00
2023-03-30T10:26:03.727Z,37.60
2023-03-30T10:28:33.544Z,36.00
2023-03-30T10:31:04.317Z,35.30
2023-03-30T10:33:38.252Z,34.00
2023-03-30T10:36:07.935Z,32.60
2023-03-30T10:38:36.884Z,30.20
2023-03-30T10:41:11.289Z,28.50
2023-03-30T10:43:39.530Z,27.00
2023-03-30T10:46:22.850Z,24.80
2023-03-30T10:48:56.119Z,24.60
2023-03-30T10:51:55.854Z,23.90
2023-03-30T10:54:28.669Z,24.20
2023-03-30T10:57:01.446Z,24.60
2023-03-30T10:59:57.362Z,25.00
2023-03-30T11:02:54.456Z,24.40
2023-03-30T11:05:33.011Z,24.70
2023-03-30T11:08:07.669Z,25.50
2023-03-30T11:10:59.459Z,26.30
2023-03-30T11:13:30.737Z,27.20
2023-03-30T11:16:08.710Z,26.70
2023-03-30T11:18:54.373Z,26.40
2023-03-30T11:21:47.525Z,25.60
2023-03-30T11:24:21.531Z,26.80
2023-03-30T11:26:56.232Z,26.50
2023-03-30T11:29:38.609Z,26.00
2023-03-30T11:32:36.542Z,25.00
2023-03-30T11:35:28.170Z,26.50
2023-03-30T11:38:19.085Z,35.20
2023-03-30T11:41:14.932Z,34.30
2023-03-30T11:43:43.405Z,35.00
2023-03-30T11:46:23.763Z,34.70
2023-03-30T11:49:21.573Z,31.80
2023-03-30T11:52:28.964Z,30.00
2023-03-30T11:55:45.271Z,27.90
2023-03-30T11:58:33.263Z,27.70
2023-03-30T12:01:17.211Z,25.80
2023-03-30T12:03:46.464Z,25.00
2023-03-30T12:06:43.084Z,23.90
2023-03-30T12:09:31.148Z,21.70
2023-03-30T12:12:21.656Z,23.30
2023-03-30T12:15:08.676Z,22.10
2023-03-30T12:18:04.236Z,22.40
2023-03-30T12:20:51.709Z,23.60
2023-03-30T12:23:43.192Z,22.30
2023-03-30T12:26:24.569Z,21.50
2023-03-30T12:29:26.246Z,21.90
2023-03-30T12:32:03.736Z,23.20
2023-03-30T12:34:36.660Z,25.40
2023-03-30T12:37:36.066Z,23.60
2023-03-30T12:40:23.721Z,25.20
2023-03-30T12:43:24.145Z,23.20
2023-03-30T12:46:14.158Z,23.30
2023-03-30T12:48:51.418Z,18.90
2023-03-30T12:51:55.974Z,16.90
2023-03-30T12:54:28.772Z,15.40
2023-03-30T12:57:18.698Z,14.90
2023-03-30T13:00:01.251Z,14.90
2023-03-30T13:03:10.341Z,16.30
2023-03-30T13:05:42.983Z,14.90
2023-03-30T13:08:27.205Z,13.20
2023-03-30T13:11:07.435Z,13.00
2023-03-30T13:13:50.769Z,14.60
2023-03-30T13:16:52.508Z,14.60
2023-03-30T13:19:29.072Z,14.80
2023-03-30T13:22:12.934Z,15.30
2023-03-30T13:24:45.593Z,15.10
2023-03-30T13:27:18.245Z,14.00
2023-03-30T13:30:11.477Z,13.80
2023-03-30T13:33:15.812Z,15.00
2023-03-30T13:36:01.615Z,16.30
2023-03-30T13:38:56.705Z,17.90
2023-03-30T13:41:47.311Z,18.20
2023-03-30T13:44:38.500Z,18.40
2023-03-30T13:47:32.002Z,18.70
2023-03-30T13:50:08.099Z,17.80
2023-03-30T13:52:41.391Z,14.40
2023-03-30T13:55:37.157Z,14.30
2023-03-30T13:58:24.824Z,14.80
2023-03-30T14:01:00.137Z,15.00
2023-03-30T14:03:42.032Z,16.20
2023-03-30T14:06:09.038Z,18.60
2023-03-30T14:08:41.531Z,19.60
2023-03-30T14:11:14.549Z,20.50
2023-03-30T14:13:42.129Z,18.60
2023-03-30T14:16:13.140Z,18.30
2023-03-30T14:18:40.319Z,18.00
2023-03-30T14:21:14.662Z,19.10
2023-03-30T14:23:45.537Z,17.50
2023-03-30T14:26:16.538Z,15.00
2023-03-30T14:28:44.359Z,15.90
2023-03-30T14:31:18.005Z,17.00
2023-03-30T14:33:45.710Z,18.20
2023-03-30T14:36:16.822Z,18.10
2023-03-30T14:38:53.277Z,18.60
2023-03-30T14:41:30.252Z,19.50
2023-03-30T14:44:01.824Z,19.90
2023-03-30T14:46:41.316Z,19.90
2023-03-30T14:49:35.282Z,20.00
2023-03-30T14:52:14.855Z,20.00
2023-03-30T14:54:48.798Z,17.80
2023-03-30T14:57:26.651Z,18.10
2023-03-30T15:00:17.394Z,18.50
2023-03-30T15:02:46.987Z,19.20
2023-03-30T15:05:19.707Z,19.90
2023-03-30T15:07:51.322Z,19.80
2023-03-30T15:10:44.309Z,20.70
2023-03-30T15:13:18.294Z,21.00
2023-03-30T15:15:45.319Z,21.10
2023-03-30T15:18:20.325Z,20.80
2023-03-30T15:20:48.045Z,19.70
2023-03-30T15:23:15.993Z,19.20
2023-03-30T15:25:44.447Z,19.90
2023-03-30T15:28:20.585Z,20.30
2023-03-30T15:30:52.223Z,19.80
2023-03-30T15:33:45.981Z,19.80
2023-03-30T15:36:19.215Z,20.80
2023-03-30T15:38:55.906Z,19.90
2023-03-30T15:41:42.734Z,19.80
2023-03-30T15:44:20.706Z,21.50
2023-03-30T15:46:54.636Z,21.70
2023-03-30T15:49:25.322Z,22.20
2023-03-30T15:51:56.901Z,22.60
2023-03-30T15:54:30.727Z,23.40
2023-03-30T15:57:08.480Z,24.00
2023-03-30T15:59:42.230Z,22.90
2023-03-30T16:02:34.767Z,23.20
2023-03-30T16:05:02.750Z,23.30
2023-03-30T16:07:31.989Z,24.30
2023-03-30T16:09:59.031Z,23.60
2023-03-30T16:12:28.841Z,24.20
2023-03-30T16:14:56.895Z,24.60
2023-03-30T16:17:23.917Z,24.10
2023-03-30T16:19:51.193Z,23.90
2023-03-30T16:22:18.131Z,23.00
2023-03-30T16:24:45.315Z,22.40
2023-03-30T16:27:12.811Z,21.80
2023-03-30T16:29:40.040Z,23.10
2023-03-30T16:32:07.132Z,23.20
2023-03-30T16:34:34.266Z,23.60
2023-03-30T16:37:01.995Z,23.20
2023-03-30T16:39:30.608Z,22.90
2023-03-30T16:41:58.176Z,24.00
2023-03-30T16:44:25.618Z,24.70
2023-03-30T16:46:53.128Z,25.90
2023-03-30T16:49:25.963Z,26.90
2023-03-30T16:51:55.344Z,27.50
2023-03-30T16:54:32.075Z,27.60
2023-03-30T16:57:01.559Z,28.80
2023-03-30T16:59:30.673Z,30.50
2023-03-30T17:01:57.995Z,29.80
2023-03-30T17:04:25.476Z,28.50
2023-03-30T17:06:54.634Z,29.50
2023-03-30T17:09:21.830Z,28.30
2023-03-30T17:11:49.632Z,28.00
2023-03-30T17:14:16.977Z,27.80
2023-03-30T17:16:44.096Z,28.30
2023-03-30T17:19:13.157Z,29.10
2023-03-30T17:21:42.954Z,29.50
2023-03-30T17:24:11.247Z,30.00
2023-03-30T17:26:39.097Z,29.40
2023-03-30T17:29:07.888Z,29.90
2023-03-30T17:31:35.313Z,28.90
2023-03-30T17:34:02.436Z,28.60
2023-03-30T17:36:29.592Z,29.20
2023-03-30T17:38:56.796Z,29.20
2023-03-30T17:41:23.774Z,29.10
2023-03-30T17:43:51.631Z,28.90
2023-03-30T17:46:19.833Z,29.70
2023-03-30T17:48:47.348Z,30.40
2023-03-30T17:51:14.491Z,30.10
2023-03-30T17:53:42.226Z,30.40
2023-03-30T17:56:12.730Z,31.90
2023-03-30T17:58:42.170Z,31.60
2023-03-30T18:01:12.975Z,32.10
2023-03-30T18:03:42.741Z,32.80
2023-03-30T18:06:11.840Z,33.30
2023-03-30T18:08:39.714Z,32.90
2023-03-30T18:11:07.185Z,33.40
2023-03-30T18:13:34.338Z,32.20
2023-03-30T18:16:01.553Z,32.20
2023-03-30T18:18:30.363Z,31.80
2023-03-30T18:20:59.564Z,32.30
2023-03-30T18:23:26.800Z,32.40
2023-03-30T18:25:53.913Z,32.60
2023-03-30T18:28:25.790Z,32.60
2023-03-30T18:30:55.434Z,33.10
2023-03-30T18:33:23.568Z,33.50
2023-03-30T18:35:52.529Z,33.70
2023-03-30T18:38:21.850Z,33.90
2023-03-30T18:40:58.224Z,34.60
2023-03-30T18:43:26.657Z,35.00
2023-03-30T18:45:57.930Z,35.90
2023-03-30T18:48:26.956Z,36.40
2023-03-30T18:50:55.191Z,36.90
2023-03-30T18:53:25.853Z,37.10
2023-03-30T18:55:57.113Z,37.70
2023-03-30T18:58:28.487Z,37.00
2023-03-30T19:00:56.522Z,37.10
2023-03-30T19:03:25.108Z,37.10
2023-03-30T19:05:52.498Z,37.50
2023-03-30T19:08:21.930Z,37.10
2023-03-30T19:10:51.477Z,36.80
2023-03-30T19:13:20.654Z,37.10
2023-03-30T19:15:48.962Z,37.00
2023-03-30T19:18:20.553Z,37.00
2023-03-30T19:20:51.978Z,37.40
2023-03-30T19:23:21.769Z,38.10
2023-03-30T19:25:49.426Z,38.60
2023-03-30T19:28:17.789Z,39.60
2023-03-30T19:30:45.562Z,39.80
2023-03-30T19:33:17.293Z,40.20
2023-03-30T19:35:45.498Z,39.90
2023-03-30T19:38:13.594Z,39.90
2023-03-30T19:40:45.114Z,40.40
2023-03-30T19:43:12.751Z,40.20
2023-03-30T19:45:40.586Z,42.10
2023-03-30T19:48:08.166Z,41.10
2023-03-30T19:50:39.544Z,42.40
2023-03-30T19:53:10.549Z,43.00
2023-03-30T19:55:43.588Z,44.10
2023-03-30T19:58:16.054Z,45.20
2023-03-30T20:00:43.976Z,46.10
2023-03-30T20:03:13.899Z,46.30
2023-03-30T20:05:50.252Z,46.60
2023-03-30T20:08:24.875Z,47.50
2023-03-30T20:10:53.485Z,48.20
2023-03-30T20:13:22.280Z,48.90
2023-03-30T20:15:53.571Z,49.20
2023-03-30T20:18:20.933Z,49.20
2023-03-30T20:20:48.251Z,49.00
2023-03-30T20:23:15.974Z,48.60
2023-03-30T20:25:49.696Z,48.90
2023-03-30T20:28:17.928Z,49.50
2023-03-30T20:30:44.999Z,49.90
2023-03-30T20:33:12.566Z,50.10
2023-03-30T20:35:40.153Z,50.40
2023-03-30T20:38:08.451Z,50.90
2023-03-30T20:40:37.010Z,51.00
2023-03-30T20:43:10.223Z,51.60
2023-03-30T20:45:48.139Z,52.20
2023-03-30T20:48:30.294Z,52.20
2023-03-30T20:50:57.601Z,52.10
2023-03-30T20:53:25.382Z,52.20
2023-03-30T20:55:53.586Z,52.00
2023-03-30T20:58:22.665Z,52.20
2023-03-30T21:00:52.044Z,52.60
2023-03-30T21:03:26.056Z,53.30
2023-03-30T21:06:05.051Z,52.90
2023-03-30T21:08:33.229Z,54.30
2023-03-30T21:11:02.152Z,54.00
2023-03-30T21:13:29.865Z,54.50
2023-03-30T21:16:02.817Z,54.30
2023-03-30T21:18:31.861Z,55.60
2023-03-30T21:20:59.165Z,55.80
2023-03-30T21:23:26.939Z,56.80
2023-03-30T21:25:59.818Z,57.40
2023-03-30T21:28:28.617Z,58.00
2023-03-30T21:30:57.184Z,58.40
2023-03-30T21:33:26.306Z,59.70
2023-03-30T21:35:55.651Z,61.10
2023-03-30T21:38:24.334Z,62.80
2023-03-30T21:41:03.107Z,63.50
2023-03-30T21:43:32.281Z,63.80
2023-03-30T21:46:01.456Z,66.40
2023-03-30T21:48:31.484Z,68.30
2023-03-30T21:51:03.592Z,70.30
2023-03-30T21:53:31.969Z,74.60
2023-03-30T21:56:00.367Z,76.40
2023-03-30T21:58:28.066Z,80.60
2023-03-30T22:01:10.590Z,84.10
2023-03-30T22:03:39.074Z,86.80
2023-03-30T22:06:10.771Z,89.60
2023-03-30T22:08:37.869Z,90.80
2023-03-30T22:11:08.178Z,93.20
2023-03-30T22:13:35.346Z,94.00
2023-03-30T22:16:12.643Z,95.60
2023-03-30T22:18:41.029Z,96.50
2023-03-30T22:21:11.836Z,96.70
2023-03-30T22:23:38.827Z,96.20
2023-03-30T22:26:06.628Z,96.20
2023-03-30T22:28:36.116Z,96.30
2023-03-30T22:31:10.554Z,96.20
2023-03-30T22:33:38.124Z,96.20
2023-03-30T22:36:07.160Z,96.00
2023-03-30T22:38:34.546Z,95.10
2023-03-30T22:41:07.956Z,94.30
2023-03-30T22:43:35.978Z,93.10
2023-03-30T22:46:04.371Z,93.00
2023-03-30T22:48:32.448Z,93.00
2023-03-30T22:51:04.322Z,91.60
2023-03-30T22:53:32.200Z,91.40
2023-03-30T22:55:59.231Z,90.30
2023-03-30T22:58:26.730Z,90.00
2023-03-30T23:00:59.119Z,89.80
2023-03-30T23:03:26.282Z,89.20
2023-03-30T23:05:53.396Z,89.70
2023-03-30T23:08:21.734Z,89.00
2023-03-30T23:10:48.647Z,88.90
2023-03-30T23:13:15.570Z,88.50
2023-03-30T23:15:43.675Z,87.30
2023-03-30T23:18:10.740Z,88.20
2023-03-30T23:20:37.704Z,87.30
2023-03-30T23:23:04.622Z,88.10
2023-03-30T23:25:31.682Z,89.70
2023-03-30T23:27:58.604Z,88.60
2023-03-30T23:30:25.590Z,89.30
2023-03-30T23:32:52.599Z,89.30
2023-03-30T23:35:19.656Z,88.40
2023-03-30T23:37:46.631Z,89.00
2023-03-30T23:40:13.656Z,89.00
2023-03-30T23:42:40.796Z,89.80
2023-03-30T23:45:08.547Z,91.00
2023-03-30T23:47:35.615Z,92.20
2023-03-30T23:50:03.731Z,94.10
2023-03-30T23:52:32.992Z,96.60
2023-03-30T23:55:01.941Z,97.60
2023-03-30T23:57:29.379Z,97.90
2023-03-30T23:59:56.312Z,98.70
